Time;durP1;ratioP1;P1;durP2;ratioP2;P2;SDS_P1;SDS_P2;PMS_P1;PMS_P2;Temp;Humidity;BMP_temperature;BMP_pressure;BME280_temperature;BME280_humidity;BME280_pressure;Samples;Min_cycle;Max_cycle;Signal;HPM_P1;HPM_P2
2022/06/05 00:02:31;;;;;;;;;;;;;;;-144.99;92.13;52289.13;5085579;28;19955;-60
2022/06/05 00:05:00;;;;;;;;;;;;;;;-144.99;94.20;52219.81;5071145;28;20429;-60
2022/06/05 00:07:31;;;;;;;;;;;;;;;-144.99;94.84;52280.97;5080062;28;19980;-60
2022/06/05 00:10:02;;;;;;;;;;;;;;;-144.99;95.16;52256.50;5083728;28;19998;-60
2022/06/05 00:12:32;;;;;;;;;;;;;;;-144.99;95.86;52256.50;5080896;28;20007;-60
2022/06/05 00:14:59;;;;;;;;;;;;;;;-144.99;97.41;52268.72;5085794;28;20001;-60
2022/06/05 00:17:25;;;;;;;;;;;;;;;-144.99;98.44;52289.13;5085632;28;20035;-60
2022/06/05 00:19:54;;;;;;;;;;;;;;;-144.99;99.11;52252.44;5085429;28;20460;-60
2022/06/05 00:22:21;;;;;;;;;;;;;;;-144.99;99.79;52248.34;5083971;28;20322;-60
2022/06/05 00:24:48;;;;;;;;;;;;;;;-144.99;100.00;52276.88;5075555;28;20069;-62
2022/06/05 00:27:19;;;;;;;;;;;;;;;-144.99;100.00;52266.69;5083208;28;19999;-62
2022/06/05 00:29:53;;;;;;;;;;;;;;;-144.99;100.00;52305.41;5084333;28;20442;-61
2022/06/05 00:32:26;;;;;;;;;;;;;;;-144.99;100.00;52280.97;5085507;28;20004;-61
2022/06/05 00:34:53;;;;;;;;;;;;;;;-144.99;100.00;52215.75;5086066;28;20060;-61
2022/06/05 00:37:24;;;;;;;;;;;;;;;-144.99;100.00;52219.81;5072461;28;20155;-61
2022/06/05 00:39:56;;;;;;;;;;;;;;;-144.99;100.00;52240.19;5077731;28;20476;-61
2022/06/05 00:42:24;;;;;;;;;;;;;;;-144.99;100.00;52268.72;5082888;28;20423;-60
2022/06/05 00:44:51;;;;;;;;;;;;;;;-144.99;100.00;52221.84;5086408;28;20071;-60
2022/06/05 00:47:20;;;;;;;;;;;;;;;-144.99;100.00;52289.13;5089473;28;19992;-61
2022/06/05 00:49:49;;;;;;;;;;;;;;;-144.99;100.00;52236.13;5087717;28;19966;-60
2022/06/05 00:52:17;;;;;;;;;;;;;;;-144.99;100.00;52252.44;5084816;28;20061;-61
2022/06/05 00:54:44;;;;;;;;;;;;;;;-144.99;100.00;52250.38;5085243;28;20430;-60
2022/06/05 00:57:12;;;;;;;;;;;;;;;-144.99;100.00;52264.66;5089672;28;19997;-62
2022/06/05 00:59:40;;;;;;;;;;;;;;;-144.99;100.00;52280.97;5087085;28;19998;-63
2022/06/05 01:02:06;;;;;;;;;;;;;;;-144.99;100.00;52234.09;5099480;22;20043;-57
2022/06/05 01:04:34;;;;;;;;;;;;;;;-144.99;100.00;52285.03;5064969;28;20006;-61
2022/06/05 01:07:01;;;;;;;;;;;;;;;-144.99;100.00;52272.81;5055299;28;20077;-61
2022/06/05 01:09:29;;;;;;;;;;;;;;;-144.99;100.00;52260.56;5080734;28;20071;-57
2022/06/05 01:12:00;;;;;;;;;;;;;;;-144.99;100.00;52252.44;5084228;28;20017;-58
2022/06/05 01:14:32;;;;;;;;;;;;;;;-144.99;100.00;52285.03;5069509;28;20083;-57
2022/06/05 01:17:00;;;;;;;;;;;;;;;-144.99;100.00;52227.97;5059837;28;20484;-60
2022/06/05 01:19:36;;;;;;;;;;;;;;;-144.99;100.00;52258.53;5076408;28;20029;-60
2022/06/05 01:22:20;;;;;;;;;;;;;;;-144.99;100.00;52293.19;5057836;28;20052;-59
2022/06/05 01:24:56;;;;;;;;;;;;;;;-144.99;100.00;52260.56;5076931;28;20392;-61
2022/06/05 01:27:26;;;;;;;;;;;;;;;-144.99;100.00;52252.44;5069028;28;19985;-62
2022/06/05 01:29:59;;;;;;;;;;;;;;;-144.99;100.00;52234.09;5064188;28;19977;-61
2022/06/05 01:32:28;;;;;;;;;;;;;;;-144.99;100.00;52260.56;5078980;28;19951;-62
2022/06/05 01:34:57;;;;;;;;;;;;;;;-144.99;100.00;52289.13;5068277;28;19968;-63
2022/06/05 01:37:27;;;;;;;;;;;;;;;-144.99;100.00;52283.00;5068808;28;20023;-62
2022/06/05 01:39:56;;;;;;;;;;;;;;;-144.99;100.00;52285.03;5072500;28;20399;-59
2022/06/05 01:42:26;;;;;;;;;;;;;;;-144.99;100.00;52244.28;5069711;28;20442;-59
2022/06/05 01:44:57;;;;;;;;;;;;;;;-144.99;100.00;52280.97;5069434;28;20399;-59
2022/06/05 01:47:26;;;;;;;;;;;;;;;-144.99;100.00;52289.13;4719622;28;10000531;-59
2022/06/05 01:49:54;;;;;;;;;;;;;;;-144.99;100.00;52264.66;5072081;28;20397;-58
2022/06/05 01:52:23;;;;;;;;;;;;;;;-144.99;100.00;52252.44;5087275;28;20417;-58
2022/06/05 01:54:53;;;;;;;;;;;;;;;-144.99;100.00;52268.72;5069996;28;20008;-58
2022/06/05 01:57:21;;;;;;;;;;;;;;;-144.99;100.00;52280.97;5069829;28;19992;-58
2022/06/05 01:59:51;;;;;;;;;;;;;;;-144.99;100.00;52262.63;5066017;28;20018;-58
2022/06/05 02:02:20;;;;;;;;;;;;;;;-144.99;100.00;52258.53;5072229;28;19990;-58
2022/06/05 02:04:49;;;;;;;;;;;;;;;-144.99;100.00;52244.28;5078208;28;20006;-58
2022/06/05 02:07:18;;;;;;;;;;;;;;;-144.99;100.00;52268.72;5074380;28;20076;-59
2022/06/05 02:09:47;;;;;;;;;;;;;;;-144.99;100.00;52238.16;5068587;28;19973;-59
2022/06/05 02:12:14;;;;;;;;;;;;;;;-144.99;100.00;52264.66;5081587;28;19973;-59
2022/06/05 02:14:42;;;;;;;;;;;;;;;-144.99;100.00;52236.13;5071472;28;20024;-59
2022/06/05 02:17:11;;;;;;;;;;;;;;;-144.99;100.00;52297.25;5070079;28;20096;-59
2022/06/05 02:19:38;;;;;;;;;;;;;;;-144.99;100.00;52268.72;5070766;28;19977;-58
2022/06/05 02:22:08;;;;;;;;;;;;;;;-144.99;100.00;52285.03;5081502;28;20042;-60
2022/06/05 02:24:34;;;;;;;;;;;;;;;-144.99;100.00;52276.88;5075089;28;19978;-58
2022/06/05 02:27:02;;;;;;;;;;;;;;;-144.99;100.00;52260.56;5070151;28;20014;-58
2022/06/05 02:29:29;;;;;;;;;;;;;;;-144.99;100.00;52268.72;5070459;28;19974;-58
2022/06/05 02:32:07;;;;;;;;;;;;;;;-144.99;100.00;52268.72;5075087;28;20007;-58
2022/06/05 02:34:42;;;;;;;;;;;;;;;-144.99;100.00;52305.41;5066368;28;20406;-58
2022/06/05 02:37:18;;;;;;;;;;;;;;;-144.99;100.00;52264.66;5070563;28;20394;-58
2022/06/05 02:39:50;;;;;;;;;;;;;;;-144.99;100.00;52244.28;5070418;28;20025;-58
2022/06/05 02:42:24;;;;;;;;;;;;;;;-144.99;100.00;52297.25;5072298;28;19989;-58
2022/06/05 02:44:54;;;;;;;;;;;;;;;-144.99;100.00;52293.19;5083780;28;19980;-57
2022/06/05 02:47:26;;;;;;;;;;;;;;;-144.99;100.00;52256.50;5071229;28;20466;-58
2022/06/05 02:49:57;;;;;;;;;;;;;;;-144.99;100.00;52248.34;5073803;28;20005;-62
2022/06/05 02:52:24;;;;;;;;;;;;;;;-144.99;100.00;52256.50;5070408;28;20070;-62
2022/06/05 02:54:52;;;;;;;;;;;;;;;-144.99;100.00;52242.22;5075716;28;20436;-63
2022/06/05 02:57:20;;;;;;;;;;;;;;;-144.99;100.00;52252.44;5050383;28;20466;-64
2022/06/05 02:59:46;;;;;;;;;;;;;;;-144.99;100.00;52305.41;5055253;28;20354;-64
2022/06/05 03:04:58;;;;;;;;;;;;;;;-144.99;100.00;52260.56;5074534;28;20067;-61
2022/06/05 03:07:25;;;;;;;;;;;;;;;-144.99;100.00;52293.19;5070210;28;20029;-60
2022/06/05 03:09:51;;;;;;;;;;;;;;;-144.99;100.00;52299.31;5070078;28;19985;-61
2022/06/05 03:12:18;;;;;;;;;;;;;;;-144.99;100.00;52305.41;5070732;28;20003;-63
2022/06/05 03:14:44;;;;;;;;;;;;;;;-144.99;100.00;52285.03;5082711;28;19970;-63
2022/06/05 03:17:11;;;;;;;;;;;;;;;-144.99;100.00;52268.72;5075627;28;20041;-62
2022/06/05 03:19:37;;;;;;;;;;;;;;;-144.99;100.00;52258.53;5070122;28;19972;-63
2022/06/05 03:22:05;;;;;;;;;;;;;;;-144.99;100.00;52295.22;5068846;28;20465;-61
2022/06/05 03:24:32;;;;;;;;;;;;;;;-144.99;100.00;52289.13;5083040;28;20042;-59
2022/06/05 03:26:58;;;;;;;;;;;;;;;-144.99;100.00;52268.72;5072682;28;20498;-60
2022/06/05 03:29:24;;;;;;;;;;;;;;;-144.99;100.00;52260.56;5070472;28;20414;-61
2022/06/05 03:31:51;;;;;;;;;;;;;;;-144.99;100.00;52297.25;5068248;28;20480;-60
2022/06/05 03:34:18;;;;;;;;;;;;;;;-144.99;100.00;52248.34;5072175;28;20067;-61
2022/06/05 03:36:46;;;;;;;;;;;;;;;-144.99;100.00;52276.88;5069662;28;19993;-61
2022/06/05 03:39:14;;;;;;;;;;;;;;;-144.99;100.00;52276.88;5070153;28;19985;-61
2022/06/05 03:41:40;;;;;;;;;;;;;;;-144.99;100.00;52252.44;5069204;28;19996;-60
2022/06/05 03:44:07;;;;;;;;;;;;;;;-144.99;100.00;52264.66;5076685;28;19973;-61
2022/06/05 03:46:35;;;;;;;;;;;;;;;-144.99;100.00;52264.66;5075133;28;20439;-60
2022/06/05 03:49:01;;;;;;;;;;;;;;;-144.99;100.00;52240.19;5074285;28;20036;-61
2022/06/05 03:51:28;;;;;;;;;;;;;;;-144.99;100.00;52291.16;5069324;28;20509;-62
2022/06/05 03:53:54;;;;;;;;;;;;;;;-144.99;100.00;52244.28;5073207;28;20047;-62
2022/06/05 03:56:23;;;;;;;;;;;;;;;-144.99;100.00;52258.53;5070352;28;20052;-62
2022/06/05 03:58:50;;;;;;;;;;;;;;;-144.99;100.00;52264.66;5069670;28;19987;-62
2022/06/05 04:01:18;;;;;;;;;;;;;;;-144.99;100.00;52250.38;5068677;28;20014;-62
2022/06/05 04:03:45;;;;;;;;;;;;;;;-144.99;100.00;52293.19;5077819;28;20420;-59
2022/06/05 04:06:13;;;;;;;;;;;;;;;-144.99;100.00;52244.28;5073265;28;19973;-60
2022/06/05 04:08:40;;;;;;;;;;;;;;;-144.99;100.00;52280.97;5049568;28;20082;-59
2022/06/05 04:11:07;;;;;;;;;;;;;;;-144.99;100.00;52242.22;5053094;28;19971;-59
2022/06/05 04:13:35;;;;;;;;;;;;;;;-144.99;100.00;52260.56;5074823;28;20057;-59
2022/06/05 04:16:02;;;;;;;;;;;;;;;-144.99;100.00;52264.66;5070986;28;19982;-61
2022/06/05 04:18:28;;;;;;;;;;;;;;;-144.99;100.00;52260.56;5069357;28;20032;-61
2022/06/05 04:20:55;;;;;;;;;;;;;;;-144.99;100.00;52252.44;5071430;28;20067;-58
2022/06/05 04:23:21;;;;;;;;;;;;;;;-144.99;100.00;52236.13;5079376;28;20095;-58
2022/06/05 04:25:47;;;;;;;;;;;;;;;-144.99;100.00;52291.16;5083389;28;20003;-60
2022/06/05 04:28:14;;;;;;;;;;;;;;;-144.99;100.00;52223.88;5073413;28;20461;-60
2022/06/05 04:30:42;;;;;;;;;;;;;;;-144.99;100.00;52260.56;5073623;28;20027;-64
2022/06/05 04:33:08;;;;;;;;;;;;;;;-144.99;100.00;52248.34;5081810;28;20011;-63
2022/06/05 04:35:36;;;;;;;;;;;;;;;-144.99;100.00;52264.66;5068977;28;19981;-63
2022/06/05 04:38:03;;;;;;;;;;;;;;;-144.99;100.00;52227.97;5075127;28;20478;-64
2022/06/05 04:40:29;;;;;;;;;;;;;;;-144.99;100.00;52276.88;5073396;28;19975;-65
2022/06/05 04:42:56;;;;;;;;;;;;;;;-144.99;100.00;52254.47;5068192;28;20035;-65
2022/06/05 04:45:22;;;;;;;;;;;;;;;-144.99;100.00;52225.94;5073844;28;20017;-64
2022/06/05 04:47:50;;;;;;;;;;;;;;;-144.99;100.00;52236.13;5061958;28;20083;-64
2022/06/05 04:50:17;;;;;;;;;;;;;;;-144.99;100.00;52270.78;5072471;28;20491;-64
2022/06/05 04:52:44;;;;;;;;;;;;;;;-144.99;100.00;52236.13;5070788;28;19970;-63
2022/06/05 04:55:10;;;;;;;;;;;;;;;-144.99;100.00;52258.53;5075722;28;20245;-63
2022/06/05 04:57:37;;;;;;;;;;;;;;;-144.99;100.00;52256.50;5078192;28;20078;-63
2022/06/05 05:00:04;;;;;;;;;;;;;;;-144.99;100.00;52219.81;5071395;28;20065;-64
2022/06/05 05:02:31;;;;;;;;;;;;;;;-144.99;100.00;52276.88;5078360;28;19982;-63
2022/06/05 05:04:59;;;;;;;;;;;;;;;-144.99;100.00;52256.50;5076640;28;20009;-63
2022/06/05 05:07:25;;;;;;;;;;;;;;;-144.99;100.00;52242.22;5072091;28;20038;-63
2022/06/05 05:09:52;;;;;;;;;;;;;;;-144.99;100.00;52227.97;5071753;28;20118;-63
2022/06/05 05:12:18;;;;;;;;;;;;;;;-144.99;100.00;52195.34;5072597;28;20345;-64
2022/06/05 05:14:45;;;;;;;;;;;;;;;-144.99;100.00;52215.75;5079295;28;19971;-67
2022/06/05 05:17:11;;;;;;;;;;;;;;;-144.99;100.00;52207.59;5071130;28;20813;-68
2022/06/05 05:19:38;;;;;;;;;;;;;;;-144.99;100.00;52264.66;5084178;28;20055;-64
2022/06/05 05:22:06;;;;;;;;;;;;;;;-144.99;100.00;52215.75;5060735;28;20031;-63
2022/06/05 05:24:32;;;;;;;;;;;;;;;-144.99;100.00;52256.50;5078754;28;19991;-64
2022/06/05 05:26:59;;;;;;;;;;;;;;;-144.99;100.00;52230.00;5082643;28;20326;-61
2022/06/05 05:29:25;;;;;;;;;;;;;;;-144.99;99.16;52207.59;5076897;28;19959;-61
2022/06/05 05:31:52;;;;;;;;;;;;;;;-144.99;98.71;52207.59;5088921;28;20408;-61
2022/06/05 05:34:18;;;;;;;;;;;;;;;-144.99;98.41;52240.19;5071360;28;19975;-63
2022/06/05 05:36:45;;;;;;;;;;;;;;;-144.99;97.48;52215.75;5071674;28;20121;-63
2022/06/05 05:42:05;;;;;;;;;;;;;;;-144.99;96.35;52189.25;5076407;28;20059;-62
2022/06/05 05:44:32;;;;;;;;;;;;;;;-144.99;95.53;52211.66;5076179;28;19966;-64
2022/06/05 05:46:59;;;;;;;;;;;;;;;-144.99;94.73;52203.50;5092568;28;20028;-64
2022/06/05 05:49:25;;;;;;;;;;;;;;;-144.99;94.76;52207.59;5100965;28;19965;-63
2022/06/05 05:51:51;;;;;;;;;;;;;;;-144.99;93.72;52234.09;5078554;28;20464;-62
2022/06/05 05:54:19;;;;;;;;;;;;;;;-144.99;92.40;52177.00;5073200;28;19966;-63
2022/06/05 05:56:46;;;;;;;;;;;;;;;-144.99;92.02;52205.53;5084512;28;20069;-63
2022/06/05 05:59:12;;;;;;;;;;;;;;;-144.99;92.03;52236.13;5060947;28;20081;-62
2022/06/05 06:01:38;;;;;;;;;;;;;;;-144.99;90.60;52230.00;5066834;28;20106;-63
2022/06/05 06:04:05;;;;;;;;;;;;;;;-144.99;90.56;52179.06;5084623;28;19979;-59
2022/06/05 06:06:33;;;;;;;;;;;;;;;-144.99;89.28;52191.28;5100212;28;20320;-59
2022/06/05 06:08:59;;;;;;;;;;;;;;;-144.99;87.92;52240.19;5092717;28;19971;-60
2022/06/05 06:11:27;;;;;;;;;;;;;;;-144.99;87.28;52170.91;5092306;28;19959;-60
2022/06/05 06:13:53;;;;;;;;;;;;;;;-144.99;85.10;52207.59;5100650;28;19972;-60
2022/06/05 06:16:23;;;;;;;;;;;;;;;-144.99;84.19;52195.34;5090517;28;19967;-59
2022/06/05 06:18:49;;;;;;;;;;;;;;;-144.99;83.24;52199.44;5085837;28;20000;-59
2022/06/05 06:21:16;;;;;;;;;;;;;;;-144.99;81.71;52201.47;5073907;28;20070;-59
2022/06/05 06:23:42;;;;;;;;;;;;;;;-144.99;81.44;52181.09;5073628;28;20019;-58
2022/06/05 06:26:09;;;;;;;;;;;;;;;-144.99;80.24;52199.44;5072660;28;19964;-58
2022/06/05 06:28:37;;;;;;;;;;;;;;;-144.99;79.36;52189.25;5079915;28;19988;-60
2022/06/05 06:31:04;;;;;;;;;;;;;;;-144.99;78.54;52162.75;5086305;28;20004;-60
2022/06/05 06:33:31;;;;;;;;;;;;;;;-144.99;78.25;52232.03;5074299;28;19985;-60
2022/06/05 06:36:00;;;;;;;;;;;;;;;-144.99;76.68;52168.84;5074473;28;19961;-59
2022/06/05 06:38:27;;;;;;;;;;;;;;;-144.99;76.33;52199.44;5077517;28;20408;-60
2022/06/05 06:40:58;;;;;;;;;;;;;;;-144.99;73.96;52174.97;5069818;28;19943;-60
2022/06/05 06:43:24;;;;;;;;;;;;;;;-144.99;74.44;52211.66;5073462;28;20055;-60
2022/06/05 06:45:52;;;;;;;;;;;;;;;-144.99;73.29;52215.75;5074055;28;19990;-61
2022/06/05 06:48:18;;;;;;;;;;;;;;;-144.99;71.10;52164.78;5078629;28;19984;-60
2022/06/05 06:50:45;;;;;;;;;;;;;;;-144.99;71.14;52172.94;5078054;28;20207;-63
2022/06/05 06:53:11;;;;;;;;;;;;;;;-144.99;70.86;52158.66;5081644;28;20060;-62
2022/06/05 06:55:38;;;;;;;;;;;;;;;-144.99;68.02;52170.91;5077364;28;20043;-62
2022/06/05 06:58:05;;;;;;;;;;;;;;;-144.99;66.82;52195.34;5075792;28;20011;-63
2022/06/05 07:00:31;;;;;;;;;;;;;;;-144.99;65.98;52177.00;5081537;28;20060;-61
2022/06/05 07:05:34;;;;;;;;;;;;;;;-144.99;64.47;52189.25;5064974;28;20403;-61
2022/06/05 07:08:01;;;;;;;;;;;;;;;-144.99;64.00;52177.00;5065943;28;20057;-62
2022/06/05 07:10:28;;;;;;;;;;;;;;;-144.99;63.24;52142.38;5069284;28;20594;-62
2022/06/05 07:12:54;;;;;;;;;;;;;;;-144.99;62.69;52170.91;5068007;28;19990;-62
2022/06/05 07:15:21;;;;;;;;;;;;;;;-144.99;62.31;52203.50;5067210;28;19955;-62
2022/06/05 07:17:47;;;;;;;;;;;;;;;-144.99;61.67;52124.03;5068546;28;19959;-61
2022/06/05 07:20:14;;;;;;;;;;;;;;;-144.99;60.77;52154.59;5069584;28;19976;-61
2022/06/05 07:22:42;;;;;;;;;;;;;;;-144.99;59.20;52121.97;5069231;28;20345;-61
2022/06/05 07:25:09;;;;;;;;;;;;;;;-144.99;59.31;52164.78;5066756;28;19968;-60
2022/06/05 07:27:36;;;;;;;;;;;;;;;-144.99;58.52;52162.75;5068171;28;19930;-63
2022/06/05 07:30:02;;;;;;;;;;;;;;;-144.99;58.51;52152.56;5069202;28;19960;-62
2022/06/05 07:32:28;;;;;;;;;;;;;;;-144.99;58.46;52174.97;5068981;28;19968;-62
2022/06/05 07:34:55;;;;;;;;;;;;;;;-144.99;59.26;52170.91;5069039;28;19978;-62
2022/06/05 07:37:21;;;;;;;;;;;;;;;-144.99;58.15;52130.13;5066676;28;20011;-62
2022/06/05 07:39:49;;;;;;;;;;;;;;;-144.99;57.95;52138.28;5068853;28;20453;-62
2022/06/05 07:42:16;;;;;;;;;;;;;;;-144.99;56.44;52146.44;5069474;28;19968;-62
2022/06/05 07:44:42;;;;;;;;;;;;;;;-144.99;54.79;52138.28;5069440;28;19981;-62
2022/06/05 07:47:09;;;;;;;;;;;;;;;-144.99;54.45;52138.28;5065212;28;20015;-61
2022/06/05 07:49:38;;;;;;;;;;;;;;;-144.99;53.28;52109.75;5069084;28;20198;-61
2022/06/05 07:54:50;;;;;;;;;;;;;;;-144.99;50.83;52146.44;5069370;28;20005;-62
2022/06/05 07:57:18;;;;;;;;;;;;;;;-144.99;50.63;52103.66;5073389;28;19972;-62
2022/06/05 07:59:45;;;;;;;;;;;;;;;-144.99;50.21;52136.25;5072879;28;19929;-60
2022/06/05 08:02:13;;;;;;;;;;;;;;;-144.99;49.64;52093.44;5064042;28;20027;-62
2022/06/05 08:04:40;;;;;;;;;;;;;;;-144.99;50.81;52121.97;5070736;28;19952;-62
2022/06/05 08:07:08;;;;;;;;;;;;;;;-144.99;49.29;52128.09;5073186;28;20032;-61
2022/06/05 08:09:35;;;;;;;;;;;;;;;-144.99;49.08;52101.59;5072957;28;20163;-61
2022/06/05 08:12:04;;;;;;;;;;;;;;;-144.99;48.43;52142.38;5069997;28;19978;-61
2022/06/05 08:14:34;;;;;;;;;;;;;;;-144.99;47.75;52085.31;5072389;28;20002;-62
2022/06/05 08:17:00;;;;;;;;;;;;;;;-144.99;47.37;52105.69;5072230;28;20175;-61
2022/06/05 08:19:27;;;;;;;;;;;;;;;-144.99;46.24;52126.06;5072879;28;19936;-73
2022/06/05 08:21:53;;;;;;;;;;;;;;;-144.99;45.35;52126.06;5071817;28;20011;-62
2022/06/05 08:24:22;;;;;;;;;;;;;;;-144.99;45.22;52146.44;5072240;28;19925;-61
2022/06/05 08:26:49;;;;;;;;;;;;;;;-144.99;44.59;52130.13;5072606;28;19967;-61
2022/06/05 08:29:17;;;;;;;;;;;;;;;-144.99;44.62;52158.66;5073137;28;19951;-63
2022/06/05 08:31:43;;;;;;;;;;;;;;;-144.99;44.97;52130.13;5070737;28;19936;-62
2022/06/05 08:34:10;;;;;;;;;;;;;;;-144.99;44.46;52113.84;5071423;28;20424;-66
2022/06/05 08:36:37;;;;;;;;;;;;;;;-144.99;43.74;52136.25;5072477;28;19999;-63
2022/06/05 08:41:54;;;;;;;;;;;;;;;-144.99;42.99;52097.53;5038130;28;19994;-65
2022/06/05 08:44:38;;;;;;;;;;;;;;;-144.99;42.62;52109.75;5070388;28;20072;-64
2022/06/05 08:47:10;;;;;;;;;;;;;;;-144.99;43.00;52138.28;5069143;28;19925;-64
2022/06/05 08:49:42;;;;;;;;;;;;;;;-144.99;42.99;52097.53;5072090;28;19964;-63
2022/06/05 08:52:14;;;;;;;;;;;;;;;-144.99;43.02;52105.69;5066362;28;19968;-63
2022/06/05 08:54:44;;;;;;;;;;;;;;;-144.99;43.05;52089.38;5070879;28;20023;-64
2022/06/05 08:57:14;;;;;;;;;;;;;;;-144.99;42.74;52130.13;5071649;28;20250;-67
2022/06/05 08:59:44;;;;;;;;;;;;;;;-144.99;42.89;52101.59;5072833;28;19924;-64
2022/06/05 09:02:17;;;;;;;;;;;;;;;-144.99;42.67;52105.69;5072361;28;19924;-65
2022/06/05 09:04:50;;;;;;;;;;;;;;;-144.99;42.86;52073.06;5068600;28;20037;-63
2022/06/05 09:07:18;;;;;;;;;;;;;;;-144.99;42.20;52052.69;5066593;28;20286;-64
2022/06/05 09:09:48;;;;;;;;;;;;;;;-144.99;41.89;52073.06;5069426;28;19924;-67
2022/06/05 09:12:19;;;;;;;;;;;;;;;-144.99;42.73;52117.91;5072752;28;19936;-64
2022/06/05 09:14:47;;;;;;;;;;;;;;;-144.99;41.56;52054.72;5071150;28;19946;-64
2022/06/05 09:17:17;;;;;;;;;;;;;;;-144.99;41.09;52066.97;5071082;28;20012;-63
2022/06/05 09:19:44;;;;;;;;;;;;;;;-144.99;41.43;52069.00;5069190;28;20044;-64
2022/06/05 09:22:15;;;;;;;;;;;;;;;-144.99;41.05;52052.69;5071039;28;19975;-63
2022/06/05 09:24:51;;;;;;;;;;;;;;;-144.99;40.38;52077.16;5070562;28;20398;-65
2022/06/05 09:27:24;;;;;;;;;;;;;;;-144.99;40.63;52044.53;5067173;28;20018;-63
2022/06/05 09:29:53;;;;;;;;;;;;;;;-144.99;40.04;52020.09;5066233;28;20351;-64
2022/06/05 09:32:33;;;;;;;;;;;;;;;-144.99;39.41;52020.09;5067175;28;20114;-63
2022/06/05 09:35:02;;;;;;;;;;;;;;;-144.99;38.97;52064.91;5066752;28;20347;-64
2022/06/05 09:37:31;;;;;;;;;;;;;;;-144.99;39.01;52040.47;5062693;28;20028;-64
2022/06/05 09:40:01;;;;;;;;;;;;;;;-144.99;39.44;52032.31;5071052;28;19948;-64
2022/06/05 09:42:43;;;;;;;;;;;;;;;-144.99;38.88;52016.00;5069716;28;20042;-63
2022/06/05 09:45:18;;;;;;;;;;;;;;;-144.99;38.88;52024.16;5071199;28;19951;-65
2022/06/05 09:47:54;;;;;;;;;;;;;;;-144.99;38.21;52032.31;5068202;28;19974;-64
2022/06/05 09:50:23;;;;;;;;;;;;;;;-144.99;38.22;52028.22;5069419;28;19932;-64
2022/06/05 09:52:50;;;;;;;;;;;;;;;-144.99;37.47;52040.47;5071124;28;19928;-63
2022/06/05 09:55:22;;;;;;;;;;;;;;;-144.99;38.61;52073.06;5071230;28;20011;-67
2022/06/05 10:00:47;;;;;;;;;;;;;;;-144.99;38.64;52052.69;5070568;28;19932;-65
2022/06/05 10:03:16;;;;;;;;;;;;;;;-144.99;38.84;52052.69;5070311;28;19924;-66
2022/06/05 10:05:45;;;;;;;;;;;;;;;-144.99;38.70;52101.59;5070467;28;20014;-64
2022/06/05 10:08:16;;;;;;;;;;;;;;;-144.99;39.44;52069.00;5065917;28;19929;-65
2022/06/05 10:10:45;;;;;;;;;;;;;;;-144.99;39.21;52073.06;5066532;28;19971;-63
2022/06/05 10:13:16;;;;;;;;;;;;;;;-144.99;39.69;52105.69;5069541;28;19925;-64
2022/06/05 10:15:47;;;;;;;;;;;;;;;-144.99;40.00;52085.31;5069516;28;20306;-64
2022/06/05 10:18:18;;;;;;;;;;;;;;;-144.99;40.02;52103.66;5066196;28;19975;-64
2022/06/05 10:20:53;;;;;;;;;;;;;;;-144.99;40.02;52085.31;5067841;28;19979;-64
2022/06/05 10:23:40;;;;;;;;;;;;;;;-144.99;39.41;52062.88;5065926;28;19925;-65
2022/06/05 10:26:24;;;;;;;;;;;;;;;-144.99;39.88;52073.06;5066600;28;20027;-63
2022/06/05 10:28:52;;;;;;;;;;;;;;;-144.99;40.65;52064.91;5054589;28;20396;-64
2022/06/05 10:31:27;;;;;;;;;;;;;;;-144.99;40.50;52069.00;5068087;28;19932;-64
2022/06/05 10:34:03;;;;;;;;;;;;;;;-144.99;39.67;52060.84;5063626;28;20023;-63
2022/06/05 10:36:34;;;;;;;;;;;;;;;-144.99;40.00;52028.22;5066842;28;20024;-65
2022/06/05 10:39:03;;;;;;;;;;;;;;;-144.99;39.79;52060.84;5067290;28;19928;-65
2022/06/05 10:41:35;;;;;;;;;;;;;;;-144.99;39.92;52022.13;5060427;28;20349;-64
2022/06/05 10:44:16;;;;;;;;;;;;;;;-144.99;39.54;52040.47;5066993;28;20050;-64
2022/06/05 10:46:48;;;;;;;;;;;;;;;-144.99;39.25;52048.63;5063035;28;19960;-65
2022/06/05 10:49:19;;;;;;;;;;;;;;;-144.99;39.65;52009.91;5069585;28;20015;-64
2022/06/05 10:51:51;;;;;;;;;;;;;;;-144.99;38.69;51999.69;5068049;28;20024;-64
2022/06/05 10:54:30;;;;;;;;;;;;;;;-144.99;38.40;51987.47;5068654;28;20006;-64
2022/06/05 10:56:59;;;;;;;;;;;;;;;-144.99;37.49;52007.84;5068201;28;20023;-65
2022/06/05 10:59:36;;;;;;;;;;;;;;;-144.99;37.88;52048.63;5068150;28;20375;-65
2022/06/05 11:02:17;;;;;;;;;;;;;;;-144.99;38.09;51999.69;5067958;28;19931;-64
2022/06/05 11:04:50;;;;;;;;;;;;;;;-144.99;37.62;51975.25;5066580;28;19933;-64
2022/06/05 11:07:30;;;;;;;;;;;;;;;-144.99;37.29;51983.41;5068416;28;19934;-65
2022/06/05 11:10:03;;;;;;;;;;;;;;;-144.99;37.77;51987.47;5067452;28;19924;-65
2022/06/05 11:15:22;;;;;;;;;;;;;;;-144.99;37.31;52003.78;5066289;28;19931;-65
2022/06/05 11:17:53;;;;;;;;;;;;;;;-144.99;37.38;51977.28;5067814;28;19971;-65
2022/06/05 11:20:23;;;;;;;;;;;;;;;-144.99;37.20;52030.28;5067936;28;19924;-62
2022/06/05 11:22:54;;;;;;;;;;;;;;;-144.99;37.96;52085.31;5067354;28;19924;-60
2022/06/05 11:25:23;;;;;;;;;;;;;;;-144.99;38.60;52052.69;5066240;28;19933;-61
2022/06/05 11:27:58;;;;;;;;;;;;;;;-144.99;37.68;52109.75;5067534;28;20039;-61
2022/06/05 11:30:30;;;;;;;;;;;;;;;-144.99;37.22;52007.84;5064272;28;19977;-67
2022/06/05 11:33:00;;;;;;;;;;;;;;;-144.99;36.89;51987.47;5063946;28;19963;-67
2022/06/05 11:35:33;;;;;;;;;;;;;;;-144.99;36.57;51963.03;5067731;28;19986;-67
2022/06/05 11:38:04;;;;;;;;;;;;;;;-144.99;36.92;51987.47;5068030;28;19936;-67
2022/06/05 11:40:35;;;;;;;;;;;;;;;-144.99;37.73;52020.09;5068074;28;19935;-66
2022/06/05 11:43:14;;;;;;;;;;;;;;;-144.99;37.27;52073.06;5066771;28;19939;-65
2022/06/05 11:45:47;;;;;;;;;;;;;;;-144.99;37.43;51977.28;5066996;28;19925;-65
2022/06/05 11:48:18;;;;;;;;;;;;;;;-144.99;37.57;52003.78;5067472;28;19985;-65
2022/06/05 11:50:50;;;;;;;;;;;;;;;-144.99;37.14;52001.75;5067739;28;19925;-65
2022/06/05 11:53:20;;;;;;;;;;;;;;;-144.99;38.25;52081.22;5067326;28;20416;-65
2022/06/05 11:55:53;;;;;;;;;;;;;;;-144.99;38.58;52113.84;5066963;28;19931;-65
2022/06/05 11:58:24;;;;;;;;;;;;;;;-144.99;38.70;52064.91;5063444;28;19935;-66
2022/06/05 12:00:55;;;;;;;;;;;;;;;-144.99;37.81;52073.06;5062226;28;20414;-64
2022/06/05 12:03:25;;;;;;;;;;;;;;;-144.99;36.96;52056.78;5065434;28;20351;-65
2022/06/05 12:05:56;;;;;;;;;;;;;;;-144.99;37.23;52022.13;5064447;28;20645;-65
2022/06/05 12:08:24;;;;;;;;;;;;;;;-144.99;37.12;52040.47;5061069;28;20019;-65
2022/06/05 12:10:54;;;;;;;;;;;;;;;-144.99;36.61;52040.47;5067558;28;20014;-65
2022/06/05 12:13:31;;;;;;;;;;;;;;;-144.99;36.59;52011.94;5065126;28;19946;-65
2022/06/05 12:16:01;;;;;;;;;;;;;;;-144.99;36.16;51993.59;5066911;28;20172;-65
2022/06/05 12:18:29;;;;;;;;;;;;;;;-144.99;35.89;52016.00;5059156;28;19925;-65
2022/06/05 12:21:02;;;;;;;;;;;;;;;-144.99;35.91;52003.78;5066879;28;20014;-65
2022/06/05 12:23:30;;;;;;;;;;;;;;;-144.99;36.16;51954.88;5057873;28;20119;-65
2022/06/05 12:25:58;;;;;;;;;;;;;;;-144.99;35.54;52034.34;5064544;28;19931;-65
2022/06/05 12:28:27;;;;;;;;;;;;;;;-144.99;35.65;52011.94;5055660;28;20424;-65
2022/06/05 12:30:55;;;;;;;;;;;;;;;-144.99;35.58;51983.41;5061374;28;20051;-64
2022/06/05 12:33:25;;;;;;;;;;;;;;;-144.99;35.65;52003.78;5066595;28;20009;-64
2022/06/05 12:35:53;;;;;;;;;;;;;;;-144.99;35.90;51995.63;5066906;28;20019;-64
2022/06/05 12:38:31;;;;;;;;;;;;;;;-144.99;35.58;52007.84;5050080;28;20393;-64
2022/06/05 12:41:03;;;;;;;;;;;;;;;-144.99;35.66;52044.53;5046919;28;20343;-65
2022/06/05 12:43:30;;;;;;;;;;;;;;;-144.99;35.51;52028.22;5055260;28;19928;-65
2022/06/05 12:46:00;;;;;;;;;;;;;;;-144.99;36.06;52024.16;5056998;28;20026;-66
2022/06/05 12:48:30;;;;;;;;;;;;;;;-144.99;35.86;52032.31;5055500;28;19929;-65
2022/06/05 12:51:01;;;;;;;;;;;;;;;-144.99;36.54;52073.06;5063766;28;19963;-66
2022/06/05 12:53:32;;;;;;;;;;;;;;;-144.99;36.53;52069.00;5067884;28;19972;-66